Liberty — WDC5845 — position and weather

sailwx.info

Track history (hours):
 
Tides and Currents Weather Stations Pressure Air Temp Water Temp Dewpoint Dewpoint Depression Visibility Wind Speed Wind Dir Waves Ship Positions

Liberty

Owner: Tidewater Barge Lines Inc., Vancouver, WA. More information available from US FCC via Universal Licensing System and Coast Guard Vessel Documentation Center.

Last reported at 2018-Jun-24 18:30 UTC. Time now 2018-Jun-24 18:50 UTC.
Position N 46°10' W 123°25'.

Length 34 m; draft 3 m.

Type: Towing. MMSI: 2142822.

Date/timePositionNaut miles runAvg speedWind from/ knotsBaromVisibWave heightAir tempDewpointWater temp
2018-Jun-24 18:30N 46°10' W 123°25'0 0.0
2018-Jun-24 18:00N 46°10' W 123°25'0 0.0
2018-Jun-24 17:27N 46°10' W 123°25'0 0.0
2018-Jun-24 17:00N 46°10' W 123°25'0 0.0
2018-Jun-24 16:30N 46°10' W 123°25'0 0.0
2018-Jun-24 16:00N 46°10' W 123°25'0 0.0
2018-Jun-24 15:27N 46°10' W 123°25'0 0.0
2018-Jun-24 14:51N 46°10' W 123°25'0 0.0
2018-Jun-24 14:30N 46°10' W 123°25'0 0.0
2018-Jun-24 13:54N 46°10' W 123°25'0 0.0
2018-Jun-24 13:30N 46°10' W 123°25'0 0.0
2018-Jun-24 13:00N 46°10' W 123°25'1 2.9
2018-Jun-24 12:30N 46°09' W 123°23'5 9.1
2018-Jun-24 12:00N 46°09' W 123°16'5 9.5
2018-Jun-24 11:30N 46°11' W 123°10'4 8.4
2018-Jun-24 11:00N 46°10' W 123°05'4 8.7
2018-Jun-24 10:31N 46°07' W 122°59'1 2.4
2018-Jun-24 10:00N 46°07' W 122°58'4 8.6
2018-Jun-24 09:31N 46°04' W 122°53'4 8.3
2018-Jun-24 09:00N 46°00' W 122°51'4 7.9
2018-Jun-24 08:31N 45°56' W 122°48'4 8.0
2018-Jun-24 08:00N 45°53' W 122°48'4 8.0
2018-Jun-24 07:30N 45°49' W 122°47'7 8.4
2018-Jun-24 06:43N 45°42' W 122°46'2 8.7
2018-Jun-24 06:30N 45°40' W 122°46'3 6.5
2018-Jun-24 06:01N 45°37' W 122°47'0 0.5
2018-Jun-24 05:26N 45°37' W 122°47'0 0.3
2018-Jun-24 05:00N 45°37' W 122°47'0 0.9
2018-Jun-24 04:29N 45°38' W 122°47'2 4.6
2018-Jun-24 04:00N 45°40' W 122°46'2 4.5
2018-Jun-24 03:30N 45°42' W 122°46'3 6.3
2018-Jun-24 03:00N 45°45' W 122°46'5 6.2
2018-Jun-24 02:14N 45°49' W 122°48'1 6.3
2018-Jun-24 02:01N 45°51' W 122°47'5 6.0
2018-Jun-24 01:12N 45°56' W 122°48'1 5.9
2018-Jun-24 01:00N 45°57' W 122°49'3 6.3
2018-Jun-24 00:30N 45°59' W 122°51'3 6.5
2018-Jun-24 00:00N 46°02' W 122°53'3 6.5
2018-Jun-23 23:30N 46°05' W 122°55'4 6.3
2018-Jun-23 22:48N 46°08' W 123°00'2 6.4
2018-Jun-23 22:30N 46°09' W 123°02'3 6.7
2018-Jun-23 22:00N 46°10' W 123°07'3 6.2
2018-Jun-23 21:30N 46°11' W 123°11'3 6.7
2018-Jun-23 21:00N 46°09' W 123°15'3 6.9
2018-Jun-23 20:31N 46°09' W 123°20'3 6.3
2018-Jun-23 20:00N 46°10' W 123°25'1 1.1
2018-Jun-23 19:31N 46°09' W 123°24'1 0.9
2018-Jun-23 18:55N 46°10' W 123°24'0 0.0
2018-Jun-23 18:28N 46°10' W 123°24'0 0.0
2018-Jun-23 17:58N 46°10' W 123°24'0 0.0
2018-Jun-23 17:22N 46°10' W 123°24'0 0.0
2018-Jun-23 16:58N 46°10' W 123°24'0 0.0
2018-Jun-23 16:28N 46°10' W 123°24'0 0.0
2018-Jun-23 15:58N 46°10' W 123°24'0 0.0
2018-Jun-23 15:28N 46°10' W 123°24'0 0.0
2018-Jun-23 14:58N 46°10' W 123°24'0 0.0
2018-Jun-23 14:28N 46°10' W 123°24'0 0.0
2018-Jun-23 13:58N 46°10' W 123°24'0 0.1
2018-Jun-23 13:13N 46°10' W 123°24'0 1.0
2018-Jun-23 13:00N 46°10' W 123°24'2 3.6
2018-Jun-23 12:30N 46°09' W 123°22'510.8
2018-Jun-23 12:00N 46°10' W 123°14'610.3
2018-Jun-23 11:28N 46°11' W 123°07'510.9
2018-Jun-23 11:00N 46°08' W 123°00'5 9.4
2018-Jun-23 10:30N 46°05' W 122°55'510.1
2018-Jun-23 10:00N 46°01' W 122°52'5 9.9
2018-Jun-23 09:30N 45°56' W 122°48'5 9.6
2018-Jun-23 09:00N 45°52' W 122°47'5 9.1
2018-Jun-23 08:30N 45°47' W 122°47'5 9.1
2018-Jun-23 08:00N 45°43' W 122°46'4 6.9
2018-Jun-23 07:30N 45°39' W 122°46'2 4.4
2018-Jun-23 06:59N 45°37' W 122°47'0 0.3
2018-Jun-23 06:30N 45°37' W 122°47'1 2.6
2018-Jun-23 06:00N 45°39' W 122°47'0 0.2
2018-Jun-23 05:30N 45°38' W 122°46'0 0.0
2018-Jun-23 05:00N 45°38' W 122°46'1 2.0
2018-Jun-23 04:18N 45°39' W 122°44'1 2.2
2018-Jun-23 03:55N 45°39' W 122°45'1 1.4
2018-Jun-23 03:30N 45°39' W 122°45'2 3.3
2018-Jun-23 02:47N 45°38' W 122°47'2 7.2
2018-Jun-23 02:30N 45°36' W 122°47'2 4.5
2018-Jun-23 02:00N 45°34' W 122°44'4 7.7
2018-Jun-23 01:31N 45°37' W 122°47'1 2.7
2018-Jun-23 01:00N 45°38' W 122°47'2 3.2
2018-Jun-23 00:30N 45°39' W 122°44'0 0.0
2018-Jun-23 00:00N 45°39' W 122°44'0 0.2
2018-Jun-22 23:30N 45°39' W 122°44'0 0.0
2018-Jun-22 23:00N 45°39' W 122°44'0 0.0
2018-Jun-22 22:30N 45°39' W 122°44'1 1.3
2018-Jun-22 22:01N 45°39' W 122°45'0 0.2
2018-Jun-22 21:30N 45°39' W 122°45'0 0.9
2018-Jun-22 21:00N 45°39' W 122°44'0 0.0
2018-Jun-22 20:26N 45°39' W 122°44'0 0.0
2018-Jun-22 19:59N 45°39' W 122°44'0 0.0
2018-Jun-22 19:23N 45°39' W 122°44'0 0.0
2018-Jun-22 18:53N 45°39' W 122°44'0 0.0
2018-Jun-22 18:29N 45°39' W 122°44'0 0.0
2018-Jun-22 17:59N 45°39' W 122°44'0 0.0
2018-Jun-22 17:26N 45°39' W 122°44'0 0.0
2018-Jun-22 16:59N 45°39' W 122°44'0 0.0
2018-Jun-22 16:29N 45°39' W 122°44'0 0.0
2018-Jun-22 15:53N 45°39' W 122°44'0 0.0
2018-Jun-22 15:29N 45°39' W 122°44'0 0.0
2018-Jun-22 14:53N 45°39' W 122°44'0 0.0
2018-Jun-22 14:24N 45°39' W 122°44'1 2.8
2018-Jun-22 14:00N 45°39' W 122°46'2 4.5
2018-Jun-22 13:30N 45°37' W 122°47'0 0.0
2018-Jun-22 13:00N 45°37' W 122°47'0 0.0
2018-Jun-22 12:27N 45°37' W 122°47'0 0.0
2018-Jun-22 12:00N 45°37' W 122°47'0 0.0
2018-Jun-22 11:30N 45°37' W 122°47'0 0.0
2018-Jun-22 11:01N 45°37' W 122°47'0 0.0
2018-Jun-22 10:31N 45°37' W 122°47'0 0.0
2018-Jun-22 10:00N 45°37' W 122°47'0 0.0
2018-Jun-22 09:30N 45°37' W 122°47'0 0.0
2018-Jun-22 09:01N 45°37' W 122°47'0 0.0
2018-Jun-22 08:22N 45°37' W 122°47'0 0.0
2018-Jun-22 08:01N 45°37' W 122°47'0 0.0
2018-Jun-22 07:31N 45°37' W 122°47'0 0.0
2018-Jun-22 06:59N 45°37' W 122°47'0 0.0
2018-Jun-22 06:30N 45°37' W 122°47'0 0.0
2018-Jun-22 05:43N 45°37' W 122°47'0 0.0
2018-Jun-22 05:31N 45°37' W 122°47'3 5.2
2018-Jun-22 05:01N 45°39' W 122°45'2 4.4
2018-Jun-22 04:30N 45°38' W 122°47'1 1.1
2018-Jun-22 04:00N 45°37' W 122°47'3 5.5
2018-Jun-22 03:31N 45°35' W 122°45'3 5.1
2018-Jun-22 03:00N 45°33' W 122°43'0 0.0
2018-Jun-22 02:27N 45°33' W 122°43'0 0.0
2018-Jun-22 01:57N 45°33' W 122°43'0 0.0
2018-Jun-22 01:30N 45°33' W 122°43'0 0.0
2018-Jun-22 01:00N 45°33' W 122°43'2 3.0
2018-Jun-22 00:30N 45°32' W 122°41'1 1.7
2018-Jun-22 00:00N 45°33' W 122°42'2 4.1
2018-Jun-21 23:30N 45°34' W 122°44'2 4.8
2018-Jun-21 23:00N 45°33' W 122°41'0 0.5
2018-Jun-21 22:30N 45°33' W 122°42'4 8.2
2018-Jun-21 22:01N 45°35' W 122°46'2 3.9
2018-Jun-21 21:30N 45°37' W 122°47'3 4.9
2018-Jun-21 21:00N 45°39' W 122°45'1 2.1
2018-Jun-21 20:30N 45°38' W 122°46'1 2.7
2018-Jun-21 20:01N 45°39' W 122°45'0 0.2
2018-Jun-21 19:29N 45°39' W 122°44'0 0.0
2018-Jun-21 18:53N 45°39' W 122°44'0 0.0
2018-Jun-21 18:26N 45°39' W 122°44'0 0.0
2018-Jun-21 17:53N 45°39' W 122°44'0 0.0
2018-Jun-21 17:29N 45°39' W 122°44'0 0.0
2018-Jun-21 16:59N 45°39' W 122°44'0 0.0
2018-Jun-21 16:26N 45°39' W 122°44'0 1.1
2018-Jun-21 16:01N 45°39' W 122°45'1 1.4
2018-Jun-21 15:30N 45°38' W 122°45'1 1.1
2018-Jun-21 14:59N 45°39' W 122°44'0 0.0
2018-Jun-21 14:26N 45°39' W 122°44'0 0.0
2018-Jun-21 13:59N 45°39' W 122°44'0 0.0
2018-Jun-21 13:26N 45°39' W 122°44'0 0.0
2018-Jun-21 12:53N 45°39' W 122°44'0 0.0
2018-Jun-21 12:23N 45°39' W 122°44'0 0.0
2018-Jun-21 11:38N 45°39' W 122°44'0 0.0
2018-Jun-21 11:29N 45°39' W 122°44'0 0.0
2018-Jun-21 10:59N 45°39' W 122°44'0 0.0
2018-Jun-21 10:26N 45°39' W 122°44'0 0.0
2018-Jun-21 09:59N 45°39' W 122°44'0 0.1
2018-Jun-21 09:30N 45°39' W 122°44'1 1.7
2018-Jun-21 08:49N 45°39' W 122°46'2 5.6
2018-Jun-21 08:30N 45°38' W 122°44'1 1.9
2018-Jun-21 08:00N 45°39' W 122°45'2 4.6
2018-Jun-21 07:30N 45°37' W 122°47'0 0.0
2018-Jun-21 06:59N 45°37' W 122°47'0 0.1
2018-Jun-21 06:30N 45°37' W 122°47'0 0.1
2018-Jun-21 05:48N 45°37' W 122°47'0 0.5
2018-Jun-21 05:30N 45°37' W 122°47'4 7.8
2018-Jun-21 05:00N 45°41' W 122°47'4 8.4
2018-Jun-21 04:30N 45°45' W 122°46'4 8.5
2018-Jun-21 04:00N 45°49' W 122°48'5 8.2
2018-Jun-21 03:25N 45°54' W 122°48'6 8.7
2018-Jun-21 02:40N 46°00' W 122°51'2 8.3
2018-Jun-21 02:28N 46°02' W 122°52'5 7.2
2018-Jun-21 01:49N 46°06' W 122°56'2 5.8
2018-Jun-21 01:27N 46°07' W 122°58'2 4.4
2018-Jun-21 00:59N 46°08' W 123°01'3 5.9
2018-Jun-21 00:30N 46°10' W 123°04'4 5.5
2018-Jun-20 23:46N 46°11' W 123°10'3 5.7
2018-Jun-20 23:19N 46°10' W 123°13'3 5.3
2018-Jun-20 22:49N 46°09' W 123°16'3 5.8
2018-Jun-20 22:22N 46°09' W 123°20'2 5.6
2018-Jun-20 21:57N 46°09' W 123°24'1 1.9
2018-Jun-20 21:28N 46°10' W 123°25'0 0.0
2018-Jun-20 21:00N 46°10' W 123°25'0 0.6
2018-Jun-20 20:27N 46°10' W 123°25'3 6.3
2018-Jun-20 19:58N 46°13' W 123°26'4 6.5
2018-Jun-20 19:22N 46°16' W 123°29'2 6.8
2018-Jun-20 19:00N 46°16' W 123°32'4 6.7
2018-Jun-20 18:24N 46°16' W 123°38'3 6.6
2018-Jun-20 17:56N 46°14' W 123°42'4 6.8
2018-Jun-20 17:24N 46°13' W 123°47'3 6.5
2018-Jun-20 16:58N 46°12' W 123°51'3 6.0
2018-Jun-20 16:24N 46°11' W 123°55'0 0.1
2018-Jun-20 15:56N 46°12' W 123°56'0 0.1
2018-Jun-20 15:24N 46°12' W 123°55'4 9.5
2018-Jun-20 14:59N 46°12' W 123°50'510.0
2018-Jun-20 14:29N 46°14' W 123°43'5 9.5
2018-Jun-20 14:00N 46°15' W 123°37'510.0
2018-Jun-20 13:30N 46°16' W 123°30'5 9.4
2018-Jun-20 12:59N 46°13' W 123°26'3 5.2
2018-Jun-20 12:25N 46°10' W 123°24'0 0.9
2018-Jun-20 11:59N 46°09' W 123°24'510.0
2018-Jun-20 11:28N 46°09' W 123°17'710.7
2018-Jun-20 10:46N 46°10' W 123°06'311.0
2018-Jun-20 10:30N 46°09' W 123°02'611.3
2018-Jun-20 10:00N 46°06' W 122°56'510.7
2018-Jun-20 09:31N 46°01' W 122°52'510.6
2018-Jun-20 09:00N 45°56' W 122°48'510.7
2018-Jun-20 08:30N 45°51' W 122°47'510.2
2018-Jun-20 08:00N 45°46' W 122°46'510.5
2018-Jun-20 07:30N 45°41' W 122°46'4 7.1
2018-Jun-20 06:59N 45°37' W 122°47'4 3.0
2018-Jun-20 05:35N 45°41' W 122°46'1 7.6
2018-Jun-20 05:30N 45°42' W 122°46'4 7.6
2018-Jun-20 05:00N 45°46' W 122°46'4 7.6
2018-Jun-20 04:30N 45°49' W 122°48'4 7.3
2018-Jun-20 04:00N 45°53' W 122°48'5 7.4
2018-Jun-20 03:19N 45°58' W 122°49'2 7.7
2018-Jun-20 03:00N 45°60' W 122°51'4 7.3
2018-Jun-20 02:30N 46°03' W 122°53'3 7.0
2018-Jun-20 02:00N 46°06' W 122°57'4 7.2
2018-Jun-20 01:30N 46°08' W 123°01'3 6.9
2018-Jun-20 01:00N 46°10' W 123°05'3 6.9
2018-Jun-20 00:30N 46°11' W 123°09'4 6.8
2018-Jun-19 23:59N 46°10' W 123°14'3 6.5
2018-Jun-19 23:30N 46°09' W 123°18'3 6.8
2018-Jun-19 23:00N 46°09' W 123°23'1 1.9
2018-Jun-19 22:30N 46°10' W 123°24'0 0.1
2018-Jun-19 22:00N 46°10' W 123°24'0 0.1
2018-Jun-19 21:09N 46°10' W 123°24'0 1.5
2018-Jun-19 20:55N 46°10' W 123°24'0 1.1
2018-Jun-19 20:30N 46°09' W 123°24'0 0.8
2018-Jun-19 19:57N 46°10' W 123°25'0 0.0
2018-Jun-19 19:24N 46°10' W 123°25'0 0.1
2018-Jun-19 18:53N 46°10' W 123°24'0 0.5
2018-Jun-19 18:28N 46°10' W 123°24'0 0.0
2018-Jun-19 17:37N 46°10' W 123°24'0 0.0
2018-Jun-19 17:16N 46°10' W 123°24'0 0.0
2018-Jun-19 16:52N 46°10' W 123°24'0 0.0
2018-Jun-19 16:07N 46°10' W 123°24'0 0.0
2018-Jun-19 15:55N 46°10' W 123°24'0 0.0
2018-Jun-19 15:10N 46°10' W 123°24'0 0.0
2018-Jun-19 14:52N 46°10' W 123°24'0 0.0
2018-Jun-19 14:22N 46°10' W 123°24'0 0.0
2018-Jun-19 13:40N 46°10' W 123°24'0 0.0
2018-Jun-19 13:25N 46°10' W 123°24'0 0.0
2018-Jun-19 12:58N 46°10' W 123°24'0 0.0
2018-Jun-19 12:28N 46°10' W 123°24'0 0.0
2018-Jun-19 11:55N 46°10' W 123°24'0 0.0
2018-Jun-19 11:28N 46°10' W 123°24'0 0.0
2018-Jun-19 10:58N 46°10' W 123°24'0 0.0
2018-Jun-19 10:28N 46°10' W 123°24'0 0.0
2018-Jun-19 09:52N 46°10' W 123°24'0 0.7
2018-Jun-19 09:28N 46°10' W 123°24'2 4.8
2018-Jun-19 09:01N 46°09' W 123°21'510.2
2018-Jun-19 08:30N 46°10' W 123°14'510.0
2018-Jun-19 08:00N 46°11' W 123°07'510.1
2018-Jun-19 07:30N 46°08' W 123°01'5 9.8
2018-Jun-19 07:00N 46°05' W 122°55'5 9.9
2018-Jun-19 06:30N 46°01' W 122°52'5 9.4
2018-Jun-19 06:00N 45°57' W 122°49'5 9.2
2018-Jun-19 05:30N 45°52' W 122°47'4 8.8
2018-Jun-19 05:01N 45°48' W 122°47'5 8.9
2018-Jun-19 04:30N 45°44' W 122°46'4 8.9
2018-Jun-19 04:00N 45°39' W 122°46'2 3.6
2018-Jun-19 03:24N 45°37' W 122°47'1 2.0
2018-Jun-19 03:01N 45°38' W 122°47'4 7.6
2018-Jun-19 02:30N 45°38' W 122°42'510.4
2018-Jun-19 02:00N 45°36' W 122°35'5 9.7
2018-Jun-19 01:28N 45°34' W 122°28'0 0.3
2018-Jun-19 01:00N 45°34' W 122°28'4 7.1
2018-Jun-19 00:30N 45°36' W 122°32'4 7.6
2018-Jun-19 00:00N 45°36' W 122°38'4 7.2
2018-Jun-18 23:30N 45°38' W 122°42'2 3.2
2018-Jun-18 23:01N 45°39' W 122°44'0 0.1
2018-Jun-18 22:30N 45°39' W 122°44'0 0.5
2018-Jun-18 21:59N 45°39' W 122°44'0 0.0
2018-Jun-18 21:29N 45°39' W 122°44'0 0.3
2018-Jun-18 21:00N 45°39' W 122°45'0 0.9
2018-Jun-18 20:30N 45°39' W 122°45'0 0.0
2018-Jun-18 20:00N 45°39' W 122°45'2 3.7
2018-Jun-18 19:30N 45°38' W 122°43'1 2.5
2018-Jun-18 18:56N 45°39' W 122°45'0 0.9
2018-Jun-18 18:30N 45°39' W 122°45'1 1.1
2018-Jun-18 18:00N 45°39' W 122°44'0 0.2
2018-Jun-18 17:22N 45°39' W 122°45'0 0.2
2018-Jun-18 17:00N 45°39' W 122°45'0 0.3
2018-Jun-18 16:31N 45°39' W 122°44'0 0.0
2018-Jun-18 15:55N 45°39' W 122°44'0 0.2
2018-Jun-18 15:29N 45°39' W 122°45'0 0.1
2018-Jun-18 15:00N 45°39' W 122°45'0 0.3
2018-Jun-18 14:30N 45°39' W 122°44'0 0.0
2018-Jun-18 13:51N 45°39' W 122°44'0 0.0
2018-Jun-18 13:30N 45°39' W 122°44'0 0.0
2018-Jun-18 13:00N 45°39' W 122°44'1 1.1
2018-Jun-18 12:29N 45°39' W 122°45'1 1.1
2018-Jun-18 12:00N 45°39' W 122°45'0 0.2
2018-Jun-18 11:30N 45°39' W 122°44'0 0.0
2018-Jun-18 11:00N 45°39' W 122°44'1 2.6
2018-Jun-18 10:30N 45°38' W 122°43'0 0.3
2018-Jun-18 10:00N 45°38' W 122°43'3 4.9
2018-Jun-18 09:29N 45°39' W 122°46'4 7.5
2018-Jun-18 09:00N 45°35' W 122°46'2 3.4
2018-Jun-18 08:30N 45°34' W 122°44'0 0.0
2018-Jun-18 08:00N 45°34' W 122°44'0 0.0
2018-Jun-18 07:30N 45°34' W 122°44'0 0.0
2018-Jun-18 07:00N 45°34' W 122°44'0 0.0
2018-Jun-18 06:30N 45°34' W 122°44'3 5.4
2018-Jun-18 06:00N 45°32' W 122°41'1 1.7
2018-Jun-18 05:30N 45°33' W 122°42'2 3.8
2018-Jun-18 05:00N 45°34' W 122°44'3 6.3
2018-Jun-18 04:30N 45°32' W 122°40'3 6.5
2018-Jun-18 04:00N 45°34' W 122°44'0 0.3
2018-Jun-18 03:30N 45°34' W 122°44'0 0.0
2018-Jun-18 03:00N 45°34' W 122°44'4 4.3
2018-Jun-18 02:06N 45°37' W 122°47'0 0.0
2018-Jun-18 02:00N 45°37' W 122°47'0 0.9
2018-Jun-18 01:30N 45°38' W 122°47'2 4.1
2018-Jun-18 01:00N 45°39' W 122°46'4 7.7
2018-Jun-18 00:30N 45°43' W 122°46'4 7.8
2018-Jun-18 00:00N 45°47' W 122°46'4 7.5
2018-Jun-17 23:30N 45°51' W 122°47'5 7.5
2018-Jun-17 22:47N 45°56' W 122°48'2 7.7
2018-Jun-17 22:30N 45°58' W 122°49'4 7.7
2018-Jun-17 22:00N 46°01' W 122°52'5 7.5
2018-Jun-17 21:18N 46°06' W 122°56'3 7.7
2018-Jun-17 20:57N 46°07' W 122°59'4 7.2
2018-Jun-17 20:23N 46°10' W 123°04'3 7.6
2018-Jun-17 20:00N 46°11' W 123°08'4 7.2
2018-Jun-17 19:30N 46°10' W 123°13'3 5.0
2018-Jun-17 19:00N 46°09' W 123°16'3 6.6
2018-Jun-17 18:30N 46°09' W 123°21'3 4.5
2018-Jun-17 17:54N 46°10' W 123°25'0 0.5
2018-Jun-17 17:29N 46°10' W 123°24'0 0.0
2018-Jun-17 16:59N 46°10' W 123°24'0 0.0
2018-Jun-17 16:29N 46°10' W 123°24'0 0.0
2018-Jun-17 15:56N 46°10' W 123°24'0 0.0
2018-Jun-17 15:29N 46°10' W 123°24'0 0.0
2018-Jun-17 14:59N 46°10' W 123°24'0 0.0
2018-Jun-17 14:29N 46°10' W 123°24'0 0.0
2018-Jun-17 13:59N 46°10' W 123°24'0 0.0
2018-Jun-17 13:29N 46°10' W 123°24'0 0.0
2018-Jun-17 12:59N 46°10' W 123°24'0 0.0
2018-Jun-17 12:26N 46°10' W 123°24'0 0.0
2018-Jun-17 11:59N 46°10' W 123°24'0 0.0
2018-Jun-17 11:26N 46°10' W 123°24'0 0.0
2018-Jun-17 10:59N 46°10' W 123°24'0 0.0
2018-Jun-17 10:29N 46°10' W 123°24'0 0.0
2018-Jun-17 09:44N 46°10' W 123°24'0 0.0
2018-Jun-17 09:26N 46°10' W 123°24'0 0.0
2018-Jun-17 08:59N 46°10' W 123°24'0 0.0
2018-Jun-17 08:30N 46°10' W 123°24'1 1.5
2018-Jun-17 08:00N 46°09' W 123°24'510.7
2018-Jun-17 07:30N 46°09' W 123°16'611.1
2018-Jun-17 06:59N 46°11' W 123°08'511.3
2018-Jun-17 06:31N 46°08' W 123°02'611.1
2018-Jun-17 06:00N 46°05' W 122°55'510.6
2018-Jun-17 05:30N 46°01' W 122°51'510.6
2018-Jun-17 05:00N 45°56' W 122°48'510.5
2018-Jun-17 04:30N 45°51' W 122°47'5 9.9
2018-Jun-17 04:00N 45°46' W 122°46'510.2
2018-Jun-17 03:29N 45°41' W 122°46'3 7.1
2018-Jun-17 03:00N 45°37' W 122°47'0 0.8
2018-Jun-17 02:30N 45°38' W 122°47'4 7.7
2018-Jun-17 02:00N 45°41' W 122°46'4 7.5
2018-Jun-17 01:30N 45°45' W 122°46'4 7.3
2018-Jun-17 01:00N 45°48' W 122°48'4 7.2
2018-Jun-17 00:30N 45°52' W 122°47'3 6.9
2018-Jun-17 00:00N 45°55' W 122°48'3 6.7
2018-Jun-16 23:30N 45°59' W 122°50'4 6.9
2018-Jun-16 23:00N 46°02' W 122°52'3 6.7
2018-Jun-16 22:30N 46°05' W 122°54'3 6.8
2018-Jun-16 22:00N 46°07' W 122°58'3 6.5
2018-Jun-16 21:30N 46°09' W 123°02'3 6.5
2018-Jun-16 21:00N 46°10' W 123°06'3 6.3
2018-Jun-16 20:30N 46°11' W 123°10'3 6.3
2018-Jun-16 20:00N 46°10' W 123°14'3 6.2
2018-Jun-16 19:28N 46°09' W 123°19'3 6.6
2018-Jun-16 19:00N 46°09' W 123°23'1 1.7
2018-Jun-16 18:29N 46°10' W 123°24'0 0.0
2018-Jun-16 18:00N 46°10' W 123°24'0 0.0
2018-Jun-16 17:30N 46°10' W 123°24'0 0.0
2018-Jun-16 17:00N 46°10' W 123°24'0 0.1
2018-Jun-16 16:30N 46°10' W 123°24'0 0.4
2018-Jun-16 15:59N 46°10' W 123°25'0 0.0
2018-Jun-16 15:29N 46°10' W 123°25'0 0.0
2018-Jun-16 14:56N 46°10' W 123°25'0 0.0
2018-Jun-16 14:30N 46°10' W 123°25'0 0.0
2018-Jun-16 13:56N 46°10' W 123°25'0 0.0
2018-Jun-16 13:29N 46°10' W 123°25'0 0.0
2018-Jun-16 12:59N 46°10' W 123°25'0 0.5
2018-Jun-16 12:31N 46°10' W 123°24'4 8.0
2018-Jun-16 12:00N 46°09' W 123°19'4 8.7
2018-Jun-16 11:30N 46°10' W 123°13'4 8.3
2018-Jun-16 11:01N 46°11' W 123°07'4 9.0
2018-Jun-16 10:31N 46°08' W 123°02'5 9.4
2018-Jun-16 10:00N 46°06' W 122°56'5 9.5
2018-Jun-16 09:31N 46°02' W 122°53'510.3
2018-Jun-16 09:01N 45°57' W 122°49'510.6
2018-Jun-16 08:31N 45°52' W 122°47'510.2
2018-Jun-16 08:01N 45°47' W 122°46'510.3
2018-Jun-16 07:31N 45°42' W 122°46'5 8.8
2018-Jun-16 06:59N 45°37' W 122°47'2 4.8
2018-Jun-16 06:31N 45°39' W 122°46'1 2.0
2018-Jun-16 06:00N 45°39' W 122°44'1 2.4
2018-Jun-16 05:30N 45°39' W 122°46'2 3.5
2018-Jun-16 05:00N 45°37' W 122°47'0 0.2
2018-Jun-16 04:28N 45°37' W 122°47'1 1.0
2018-Jun-16 03:54N 45°38' W 122°47'3 6.6
2018-Jun-16 03:30N 45°40' W 122°46'4 7.2
2018-Jun-16 03:00N 45°44' W 122°46'4 7.3
2018-Jun-16 02:31N 45°47' W 122°47'5 7.3
2018-Jun-16 01:53N 45°52' W 122°47'3 7.6
2018-Jun-16 01:30N 45°55' W 122°49'4 7.4
2018-Jun-16 01:01N 45°58' W 122°50'4 7.7
2018-Jun-16 00:30N 46°02' W 122°53'4 7.4
2018-Jun-16 00:00N 46°05' W 122°55'4 7.5
2018-Jun-15 23:30N 46°07' W 122°59'4 7.4
2018-Jun-15 23:01N 46°09' W 123°04'4 7.6
2018-Jun-15 22:31N 46°11' W 123°08'4 7.3
2018-Jun-15 22:00N 46°10' W 123°13'4 7.2
2018-Jun-15 21:30N 46°09' W 123°18'4 7.6
2018-Jun-15 21:01N 46°09' W 123°24'0 0.9
2018-Jun-15 20:31N 46°09' W 123°24'0 0.1
2018-Jun-15 20:00N 46°09' W 123°24'0 0.0
2018-Jun-15 19:30N 46°09' W 123°24'0 0.0
2018-Jun-15 19:01N 46°09' W 123°24'0 0.0
2018-Jun-15 18:31N 46°09' W 123°24'0 0.9
2018-Jun-15 18:01N 46°10' W 123°25'0 0.0
2018-Jun-15 17:30N 46°10' W 123°25'0 0.0
2018-Jun-15 17:00N 46°10' W 123°25'0 0.0
2018-Jun-15 16:30N 46°10' W 123°25'0 0.0
2018-Jun-15 15:51N 46°10' W 123°25'0 0.0
2018-Jun-15 15:29N 46°10' W 123°25'0 0.0
2018-Jun-15 15:00N 46°10' W 123°25'0 0.0
2018-Jun-15 14:30N 46°10' W 123°25'0 0.1
2018-Jun-15 14:00N 46°10' W 123°24'0 0.4
2018-Jun-15 13:30N 46°10' W 123°24'0 0.9
2018-Jun-15 13:00N 46°09' W 123°24'510.0
2018-Jun-15 12:30N 46°09' W 123°17'7 9.6
2018-Jun-15 11:50N 46°11' W 123°08'3 9.1
2018-Jun-15 11:30N 46°10' W 123°04'4 9.0
2018-Jun-15 11:00N 46°07' W 122°59'5 9.2
2018-Jun-15 10:30N 46°04' W 122°54'8 9.5
2018-Jun-15 09:37N 45°57' W 122°48'110.4
2018-Jun-15 09:31N 45°56' W 122°48'510.2
2018-Jun-15 09:00N 45°51' W 122°47'510.1
2018-Jun-15 08:30N 45°46' W 122°46'510.6
2018-Jun-15 08:00N 45°40' W 122°46'3 4.9
2018-Jun-15 07:19N 45°37' W 122°47'2 4.7
2018-Jun-15 06:59N 45°36' W 122°46'4 7.7
2018-Jun-15 06:30N 45°33' W 122°43'0 0.4
2018-Jun-15 06:00N 45°33' W 122°43'4 7.9
2018-Jun-15 05:30N 45°36' W 122°47'3 6.3
2018-Jun-15 05:01N 45°39' W 122°45'0 0.5
2018-Jun-15 04:31N 45°39' W 122°44'0 0.0
2018-Jun-15 04:01N 45°39' W 122°44'3 2.7
2018-Jun-15 03:03N 45°37' W 122°47'0 0.1
2018-Jun-15 03:00N 45°37' W 122°47'0 0.3
2018-Jun-15 02:30N 45°37' W 122°47'0 0.2
2018-Jun-15 02:01N 45°37' W 122°47'3 5.4
2018-Jun-15 01:29N 45°40' W 122°46'3 6.9
2018-Jun-15 01:00N 45°43' W 122°46'4 7.3
2018-Jun-15 00:30N 45°47' W 122°46'4 7.0
2018-Jun-15 00:00N 45°50' W 122°47'3 6.9
2018-Jun-14 23:30N 45°54' W 122°48'3 6.8
2018-Jun-14 23:01N 45°57' W 122°49'4 7.0
2018-Jun-14 22:30N 46°00' W 122°51'3 6.6
2018-Jun-14 22:01N 46°03' W 122°53'3 6.4
2018-Jun-14 21:30N 46°06' W 122°56'3 6.5
2018-Jun-14 21:00N 46°08' W 122°60'3 6.0
2018-Jun-14 20:30N 46°09' W 123°03'3 6.3
2018-Jun-14 20:00N 46°11' W 123°07'3 5.8
2018-Jun-14 19:31N 46°11' W 123°11'3 5.8
2018-Jun-14 19:00N 46°09' W 123°15'3 5.8
2018-Jun-14 18:31N 46°08' W 123°19'  
Track history (hours):
 
Tides and Currents Weather Stations Pressure Air Temp Water Temp Dewpoint Dewpoint Depression Visibility Wind Speed Wind Dir Waves Ship Positions

Liberty

Owner: Tidewater Barge Lines Inc., Vancouver, WA. More information available from US FCC via Universal Licensing System and Coast Guard Vessel Documentation Center.

Last reported at 2018-Jun-24 18:30 UTC. Time now 2018-Jun-24 18:50 UTC.
Position N 46°10' W 123°25'.

Length 34 m; draft 3 m.

Type: Towing. MMSI: 2142822.

Date/timePositionNaut miles runAvg speedWind from/ knotsBaromVisibWave heightAir tempDewpointWater temp
2018-Jun-24 18:30N 46°10' W 123°25'0 0.0
2018-Jun-24 18:00N 46°10' W 123°25'0 0.0
2018-Jun-24 17:27N 46°10' W 123°25'0 0.0
2018-Jun-24 17:00N 46°10' W 123°25'0 0.0
2018-Jun-24 16:30N 46°10' W 123°25'0 0.0
2018-Jun-24 16:00N 46°10' W 123°25'0 0.0
2018-Jun-24 15:27N 46°10' W 123°25'0 0.0
2018-Jun-24 14:51N 46°10' W 123°25'0 0.0
2018-Jun-24 14:30N 46°10' W 123°25'0 0.0
2018-Jun-24 13:54N 46°10' W 123°25'0 0.0
2018-Jun-24 13:30N 46°10' W 123°25'0 0.0
2018-Jun-24 13:00N 46°10' W 123°25'1 2.9
2018-Jun-24 12:30N 46°09' W 123°23'5 9.1
2018-Jun-24 12:00N 46°09' W 123°16'5 9.5
2018-Jun-24 11:30N 46°11' W 123°10'4 8.4
2018-Jun-24 11:00N 46°10' W 123°05'4 8.7
2018-Jun-24 10:31N 46°07' W 122°59'1 2.4
2018-Jun-24 10:00N 46°07' W 122°58'4 8.6
2018-Jun-24 09:31N 46°04' W 122°53'4 8.3
2018-Jun-24 09:00N 46°00' W 122°51'4 7.9
2018-Jun-24 08:31N 45°56' W 122°48'4 8.0
2018-Jun-24 08:00N 45°53' W 122°48'4 8.0
2018-Jun-24 07:30N 45°49' W 122°47'7 8.4
2018-Jun-24 06:43N 45°42' W 122°46'2 8.7
2018-Jun-24 06:30N 45°40' W 122°46'3 6.5
2018-Jun-24 06:01N 45°37' W 122°47'0 0.5
2018-Jun-24 05:26N 45°37' W 122°47'0 0.3
2018-Jun-24 05:00N 45°37' W 122°47'0 0.9
2018-Jun-24 04:29N 45°38' W 122°47'2 4.6
2018-Jun-24 04:00N 45°40' W 122°46'2 4.5
2018-Jun-24 03:30N 45°42' W 122°46'3 6.3
2018-Jun-24 03:00N 45°45' W 122°46'5 6.2
2018-Jun-24 02:14N 45°49' W 122°48'1 6.3
2018-Jun-24 02:01N 45°51' W 122°47'5 6.0
2018-Jun-24 01:12N 45°56' W 122°48'1 5.9
2018-Jun-24 01:00N 45°57' W 122°49'3 6.3
2018-Jun-24 00:30N 45°59' W 122°51'3 6.5
2018-Jun-24 00:00N 46°02' W 122°53'3 6.5
2018-Jun-23 23:30N 46°05' W 122°55'4 6.3
2018-Jun-23 22:48N 46°08' W 123°00'2 6.4
2018-Jun-23 22:30N 46°09' W 123°02'3 6.7
2018-Jun-23 22:00N 46°10' W 123°07'3 6.2
2018-Jun-23 21:30N 46°11' W 123°11'3 6.7
2018-Jun-23 21:00N 46°09' W 123°15'3 6.9
2018-Jun-23 20:31N 46°09' W 123°20'3 6.3
2018-Jun-23 20:00N 46°10' W 123°25'1 1.1
2018-Jun-23 19:31N 46°09' W 123°24'1 0.9
2018-Jun-23 18:55N 46°10' W 123°24'0 0.0
2018-Jun-23 18:28N 46°10' W 123°24'0 0.0
2018-Jun-23 17:58N 46°10' W 123°24'0 0.0
2018-Jun-23 17:22N 46°10' W 123°24'0 0.0
2018-Jun-23 16:58N 46°10' W 123°24'0 0.0
2018-Jun-23 16:28N 46°10' W 123°24'0 0.0
2018-Jun-23 15:58N 46°10' W 123°24'0 0.0
2018-Jun-23 15:28N 46°10' W 123°24'0 0.0
2018-Jun-23 14:58N 46°10' W 123°24'0 0.0
2018-Jun-23 14:28N 46°10' W 123°24'0 0.0
2018-Jun-23 13:58N 46°10' W 123°24'0 0.1
2018-Jun-23 13:13N 46°10' W 123°24'0 1.0
2018-Jun-23 13:00N 46°10' W 123°24'2 3.6
2018-Jun-23 12:30N 46°09' W 123°22'510.8
2018-Jun-23 12:00N 46°10' W 123°14'610.3
2018-Jun-23 11:28N 46°11' W 123°07'510.9
2018-Jun-23 11:00N 46°08' W 123°00'5 9.4
2018-Jun-23 10:30N 46°05' W 122°55'510.1
2018-Jun-23 10:00N 46°01' W 122°52'5 9.9
2018-Jun-23 09:30N 45°56' W 122°48'5 9.6
2018-Jun-23 09:00N 45°52' W 122°47'5 9.1
2018-Jun-23 08:30N 45°47' W 122°47'5 9.1
2018-Jun-23 08:00N 45°43' W 122°46'4 6.9
2018-Jun-23 07:30N 45°39' W 122°46'2 4.4
2018-Jun-23 06:59N 45°37' W 122°47'0 0.3
2018-Jun-23 06:30N 45°37' W 122°47'1 2.6
2018-Jun-23 06:00N 45°39' W 122°47'0 0.2
2018-Jun-23 05:30N 45°38' W 122°46'0 0.0
2018-Jun-23 05:00N 45°38' W 122°46'1 2.0
2018-Jun-23 04:18N 45°39' W 122°44'1 2.2
2018-Jun-23 03:55N 45°39' W 122°45'1 1.4
2018-Jun-23 03:30N 45°39' W 122°45'2 3.3
2018-Jun-23 02:47N 45°38' W 122°47'2 7.2
2018-Jun-23 02:30N 45°36' W 122°47'2 4.5
2018-Jun-23 02:00N 45°34' W 122°44'4 7.7
2018-Jun-23 01:31N 45°37' W 122°47'1 2.7
2018-Jun-23 01:00N 45°38' W 122°47'2 3.2
2018-Jun-23 00:30N 45°39' W 122°44'0 0.0
2018-Jun-23 00:00N 45°39' W 122°44'0 0.2
2018-Jun-22 23:30N 45°39' W 122°44'0 0.0
2018-Jun-22 23:00N 45°39' W 122°44'0 0.0
2018-Jun-22 22:30N 45°39' W 122°44'1 1.3
2018-Jun-22 22:01N 45°39' W 122°45'0 0.2
2018-Jun-22 21:30N 45°39' W 122°45'0 0.9
2018-Jun-22 21:00N 45°39' W 122°44'0 0.0
2018-Jun-22 20:26N 45°39' W 122°44'0 0.0
2018-Jun-22 19:59N 45°39' W 122°44'0 0.0
2018-Jun-22 19:23N 45°39' W 122°44'0 0.0
2018-Jun-22 18:53N 45°39' W 122°44'0 0.0
2018-Jun-22 18:29N 45°39' W 122°44'0 0.0
2018-Jun-22 17:59N 45°39' W 122°44'0 0.0
2018-Jun-22 17:26N 45°39' W 122°44'0 0.0
2018-Jun-22 16:59N 45°39' W 122°44'0 0.0
2018-Jun-22 16:29N 45°39' W 122°44'0 0.0
2018-Jun-22 15:53N 45°39' W 122°44'0 0.0
2018-Jun-22 15:29N 45°39' W 122°44'0 0.0
2018-Jun-22 14:53N 45°39' W 122°44'0 0.0
2018-Jun-22 14:24N 45°39' W 122°44'1 2.8
2018-Jun-22 14:00N 45°39' W 122°46'2 4.5
2018-Jun-22 13:30N 45°37' W 122°47'0 0.0
2018-Jun-22 13:00N 45°37' W 122°47'0 0.0
2018-Jun-22 12:27N 45°37' W 122°47'0 0.0
2018-Jun-22 12:00N 45°37' W 122°47'0 0.0
2018-Jun-22 11:30N 45°37' W 122°47'0 0.0
2018-Jun-22 11:01N 45°37' W 122°47'0 0.0
2018-Jun-22 10:31N 45°37' W 122°47'0 0.0
2018-Jun-22 10:00N 45°37' W 122°47'0 0.0
2018-Jun-22 09:30N 45°37' W 122°47'0 0.0
2018-Jun-22 09:01N 45°37' W 122°47'0 0.0
2018-Jun-22 08:22N 45°37' W 122°47'0 0.0
2018-Jun-22 08:01N 45°37' W 122°47'0 0.0
2018-Jun-22 07:31N 45°37' W 122°47'0 0.0
2018-Jun-22 06:59N 45°37' W 122°47'0 0.0
2018-Jun-22 06:30N 45°37' W 122°47'0 0.0
2018-Jun-22 05:43N 45°37' W 122°47'0 0.0
2018-Jun-22 05:31N 45°37' W 122°47'3 5.2
2018-Jun-22 05:01N 45°39' W 122°45'2 4.4
2018-Jun-22 04:30N 45°38' W 122°47'1 1.1
2018-Jun-22 04:00N 45°37' W 122°47'3 5.5
2018-Jun-22 03:31N 45°35' W 122°45'3 5.1
2018-Jun-22 03:00N 45°33' W 122°43'0 0.0
2018-Jun-22 02:27N 45°33' W 122°43'0 0.0
2018-Jun-22 01:57N 45°33' W 122°43'0 0.0
2018-Jun-22 01:30N 45°33' W 122°43'0 0.0
2018-Jun-22 01:00N 45°33' W 122°43'2 3.0
2018-Jun-22 00:30N 45°32' W 122°41'1 1.7
2018-Jun-22 00:00N 45°33' W 122°42'2 4.1
2018-Jun-21 23:30N 45°34' W 122°44'2 4.8
2018-Jun-21 23:00N 45°33' W 122°41'0 0.5
2018-Jun-21 22:30N 45°33' W 122°42'4 8.2
2018-Jun-21 22:01N 45°35' W 122°46'2 3.9
2018-Jun-21 21:30N 45°37' W 122°47'3 4.9
2018-Jun-21 21:00N 45°39' W 122°45'1 2.1
2018-Jun-21 20:30N 45°38' W 122°46'1 2.7
2018-Jun-21 20:01N 45°39' W 122°45'0 0.2
2018-Jun-21 19:29N 45°39' W 122°44'0 0.0
2018-Jun-21 18:53N 45°39' W 122°44'0 0.0
2018-Jun-21 18:26N 45°39' W 122°44'0 0.0
2018-Jun-21 17:53N 45°39' W 122°44'0 0.0
2018-Jun-21 17:29N 45°39' W 122°44'0 0.0
2018-Jun-21 16:59N 45°39' W 122°44'0 0.0
2018-Jun-21 16:26N 45°39' W 122°44'0 1.1
2018-Jun-21 16:01N 45°39' W 122°45'1 1.4
2018-Jun-21 15:30N 45°38' W 122°45'1 1.1
2018-Jun-21 14:59N 45°39' W 122°44'0 0.0
2018-Jun-21 14:26N 45°39' W 122°44'0 0.0
2018-Jun-21 13:59N 45°39' W 122°44'0 0.0
2018-Jun-21 13:26N 45°39' W 122°44'0 0.0
2018-Jun-21 12:53N 45°39' W 122°44'0 0.0
2018-Jun-21 12:23N 45°39' W 122°44'0 0.0
2018-Jun-21 11:38N 45°39' W 122°44'0 0.0
2018-Jun-21 11:29N 45°39' W 122°44'0 0.0
2018-Jun-21 10:59N 45°39' W 122°44'0 0.0
2018-Jun-21 10:26N 45°39' W 122°44'0 0.0
2018-Jun-21 09:59N 45°39' W 122°44'0 0.1
2018-Jun-21 09:30N 45°39' W 122°44'1 1.7
2018-Jun-21 08:49N 45°39' W 122°46'2 5.6
2018-Jun-21 08:30N 45°38' W 122°44'1 1.9
2018-Jun-21 08:00N 45°39' W 122°45'2 4.6
2018-Jun-21 07:30N 45°37' W 122°47'0 0.0
2018-Jun-21 06:59N 45°37' W 122°47'0 0.1
2018-Jun-21 06:30N 45°37' W 122°47'0 0.1
2018-Jun-21 05:48N 45°37' W 122°47'0 0.5
2018-Jun-21 05:30N 45°37' W 122°47'4 7.8
2018-Jun-21 05:00N 45°41' W 122°47'4 8.4
2018-Jun-21 04:30N 45°45' W 122°46'4 8.5
2018-Jun-21 04:00N 45°49' W 122°48'5 8.2
2018-Jun-21 03:25N 45°54' W 122°48'6 8.7
2018-Jun-21 02:40N 46°00' W 122°51'2 8.3
2018-Jun-21 02:28N 46°02' W 122°52'5 7.2
2018-Jun-21 01:49N 46°06' W 122°56'2 5.8
2018-Jun-21 01:27N 46°07' W 122°58'2 4.4
2018-Jun-21 00:59N 46°08' W 123°01'3 5.9
2018-Jun-21 00:30N 46°10' W 123°04'4 5.5
2018-Jun-20 23:46N 46°11' W 123°10'3 5.7
2018-Jun-20 23:19N 46°10' W 123°13'3 5.3
2018-Jun-20 22:49N 46°09' W 123°16'3 5.8
2018-Jun-20 22:22N 46°09' W 123°20'2 5.6
2018-Jun-20 21:57N 46°09' W 123°24'1 1.9
2018-Jun-20 21:28N 46°10' W 123°25'0 0.0
2018-Jun-20 21:00N 46°10' W 123°25'0 0.6
2018-Jun-20 20:27N 46°10' W 123°25'3 6.3
2018-Jun-20 19:58N 46°13' W 123°26'4 6.5
2018-Jun-20 19:22N 46°16' W 123°29'2 6.8
2018-Jun-20 19:00N 46°16' W 123°32'4 6.7
2018-Jun-20 18:24N 46°16' W 123°38'3 6.6
2018-Jun-20 17:56N 46°14' W 123°42'4 6.8
2018-Jun-20 17:24N 46°13' W 123°47'3 6.5
2018-Jun-20 16:58N 46°12' W 123°51'3 6.0
2018-Jun-20 16:24N 46°11' W 123°55'0 0.1
2018-Jun-20 15:56N 46°12' W 123°56'0 0.1
2018-Jun-20 15:24N 46°12' W 123°55'4 9.5
2018-Jun-20 14:59N 46°12' W 123°50'510.0
2018-Jun-20 14:29N 46°14' W 123°43'5 9.5
2018-Jun-20 14:00N 46°15' W 123°37'510.0
2018-Jun-20 13:30N 46°16' W 123°30'5 9.4
2018-Jun-20 12:59N 46°13' W 123°26'3 5.2
2018-Jun-20 12:25N 46°10' W 123°24'0 0.9
2018-Jun-20 11:59N 46°09' W 123°24'510.0
2018-Jun-20 11:28N 46°09' W 123°17'710.7
2018-Jun-20 10:46N 46°10' W 123°06'311.0
2018-Jun-20 10:30N 46°09' W 123°02'611.3
2018-Jun-20 10:00N 46°06' W 122°56'510.7
2018-Jun-20 09:31N 46°01' W 122°52'510.6
2018-Jun-20 09:00N 45°56' W 122°48'510.7
2018-Jun-20 08:30N 45°51' W 122°47'510.2
2018-Jun-20 08:00N 45°46' W 122°46'510.5
2018-Jun-20 07:30N 45°41' W 122°46'4 7.1
2018-Jun-20 06:59N 45°37' W 122°47'4 3.0
2018-Jun-20 05:35N 45°41' W 122°46'1 7.6
2018-Jun-20 05:30N 45°42' W 122°46'4 7.6
2018-Jun-20 05:00N 45°46' W 122°46'4 7.6
2018-Jun-20 04:30N 45°49' W 122°48'4 7.3
2018-Jun-20 04:00N 45°53' W 122°48'5 7.4
2018-Jun-20 03:19N 45°58' W 122°49'2 7.7
2018-Jun-20 03:00N 45°60' W 122°51'4 7.3
2018-Jun-20 02:30N 46°03' W 122°53'3 7.0
2018-Jun-20 02:00N 46°06' W 122°57'4 7.2
2018-Jun-20 01:30N 46°08' W 123°01'3 6.9
2018-Jun-20 01:00N 46°10' W 123°05'3 6.9
2018-Jun-20 00:30N 46°11' W 123°09'4 6.8
2018-Jun-19 23:59N 46°10' W 123°14'3 6.5
2018-Jun-19 23:30N 46°09' W 123°18'3 6.8
2018-Jun-19 23:00N 46°09' W 123°23'1 1.9
2018-Jun-19 22:30N 46°10' W 123°24'0 0.1
2018-Jun-19 22:00N 46°10' W 123°24'0 0.1
2018-Jun-19 21:09N 46°10' W 123°24'0 1.5
2018-Jun-19 20:55N 46°10' W 123°24'0 1.1
2018-Jun-19 20:30N 46°09' W 123°24'0 0.8
2018-Jun-19 19:57N 46°10' W 123°25'0 0.0
2018-Jun-19 19:24N 46°10' W 123°25'0 0.1
2018-Jun-19 18:53N 46°10' W 123°24'0 0.5
2018-Jun-19 18:28N 46°10' W 123°24'0 0.0
2018-Jun-19 17:37N 46°10' W 123°24'0 0.0
2018-Jun-19 17:16N 46°10' W 123°24'0 0.0
2018-Jun-19 16:52N 46°10' W 123°24'0 0.0
2018-Jun-19 16:07N 46°10' W 123°24'0 0.0
2018-Jun-19 15:55N 46°10' W 123°24'0 0.0
2018-Jun-19 15:10N 46°10' W 123°24'0 0.0
2018-Jun-19 14:52N 46°10' W 123°24'0 0.0
2018-Jun-19 14:22N 46°10' W 123°24'0 0.0
2018-Jun-19 13:40N 46°10' W 123°24'0 0.0
2018-Jun-19 13:25N 46°10' W 123°24'0 0.0
2018-Jun-19 12:58N 46°10' W 123°24'0 0.0
2018-Jun-19 12:28N 46°10' W 123°24'0 0.0
2018-Jun-19 11:55N 46°10' W 123°24'0 0.0
2018-Jun-19 11:28N 46°10' W 123°24'0 0.0
2018-Jun-19 10:58N 46°10' W 123°24'0 0.0
2018-Jun-19 10:28N 46°10' W 123°24'0 0.0
2018-Jun-19 09:52N 46°10' W 123°24'0 0.7
2018-Jun-19 09:28N 46°10' W 123°24'2 4.8
2018-Jun-19 09:01N 46°09' W 123°21'510.2
2018-Jun-19 08:30N 46°10' W 123°14'510.0
2018-Jun-19 08:00N 46°11' W 123°07'510.1
2018-Jun-19 07:30N 46°08' W 123°01'5 9.8
2018-Jun-19 07:00N 46°05' W 122°55'5 9.9
2018-Jun-19 06:30N 46°01' W 122°52'5 9.4
2018-Jun-19 06:00N 45°57' W 122°49'5 9.2
2018-Jun-19 05:30N 45°52' W 122°47'4 8.8
2018-Jun-19 05:01N 45°48' W 122°47'5 8.9
2018-Jun-19 04:30N 45°44' W 122°46'4 8.9
2018-Jun-19 04:00N 45°39' W 122°46'2 3.6
2018-Jun-19 03:24N 45°37' W 122°47'1 2.0
2018-Jun-19 03:01N 45°38' W 122°47'4 7.6
2018-Jun-19 02:30N 45°38' W 122°42'510.4
2018-Jun-19 02:00N 45°36' W 122°35'5 9.7
2018-Jun-19 01:28N 45°34' W 122°28'0 0.3
2018-Jun-19 01:00N 45°34' W 122°28'4 7.1
2018-Jun-19 00:30N 45°36' W 122°32'4 7.6
2018-Jun-19 00:00N 45°36' W 122°38'4 7.2
2018-Jun-18 23:30N 45°38' W 122°42'2 3.2
2018-Jun-18 23:01N 45°39' W 122°44'0 0.1
2018-Jun-18 22:30N 45°39' W 122°44'0 0.5
2018-Jun-18 21:59N 45°39' W 122°44'0 0.0
2018-Jun-18 21:29N 45°39' W 122°44'0 0.3
2018-Jun-18 21:00N 45°39' W 122°45'0 0.9
2018-Jun-18 20:30N 45°39' W 122°45'0 0.0
2018-Jun-18 20:00N 45°39' W 122°45'2 3.7
2018-Jun-18 19:30N 45°38' W 122°43'1 2.5
2018-Jun-18 18:56N 45°39' W 122°45'0 0.9
2018-Jun-18 18:30N 45°39' W 122°45'1 1.1
2018-Jun-18 18:00N 45°39' W 122°44'0 0.2
2018-Jun-18 17:22N 45°39' W 122°45'0 0.2
2018-Jun-18 17:00N 45°39' W 122°45'0 0.3
2018-Jun-18 16:31N 45°39' W 122°44'0 0.0
2018-Jun-18 15:55N 45°39' W 122°44'0 0.2
2018-Jun-18 15:29N 45°39' W 122°45'0 0.1
2018-Jun-18 15:00N 45°39' W 122°45'0 0.3
2018-Jun-18 14:30N 45°39' W 122°44'0 0.0
2018-Jun-18 13:51N 45°39' W 122°44'0 0.0
2018-Jun-18 13:30N 45°39' W 122°44'0 0.0
2018-Jun-18 13:00N 45°39' W 122°44'1 1.1
2018-Jun-18 12:29N 45°39' W 122°45'1 1.1
2018-Jun-18 12:00N 45°39' W 122°45'0 0.2
2018-Jun-18 11:30N 45°39' W 122°44'0 0.0
2018-Jun-18 11:00N 45°39' W 122°44'1 2.6
2018-Jun-18 10:30N 45°38' W 122°43'0 0.3
2018-Jun-18 10:00N 45°38' W 122°43'3 4.9
2018-Jun-18 09:29N 45°39' W 122°46'4 7.5
2018-Jun-18 09:00N 45°35' W 122°46'2 3.4
2018-Jun-18 08:30N 45°34' W 122°44'0 0.0
2018-Jun-18 08:00N 45°34' W 122°44'0 0.0
2018-Jun-18 07:30N 45°34' W 122°44'0 0.0
2018-Jun-18 07:00N 45°34' W 122°44'0 0.0
2018-Jun-18 06:30N 45°34' W 122°44'3 5.4
2018-Jun-18 06:00N 45°32' W 122°41'1 1.7
2018-Jun-18 05:30N 45°33' W 122°42'2 3.8
2018-Jun-18 05:00N 45°34' W 122°44'3 6.3
2018-Jun-18 04:30N 45°32' W 122°40'3 6.5
2018-Jun-18 04:00N 45°34' W 122°44'0 0.3
2018-Jun-18 03:30N 45°34' W 122°44'0 0.0
2018-Jun-18 03:00N 45°34' W 122°44'4 4.3
2018-Jun-18 02:06N 45°37' W 122°47'0 0.0
2018-Jun-18 02:00N 45°37' W 122°47'0 0.9
2018-Jun-18 01:30N 45°38' W 122°47'2 4.1
2018-Jun-18 01:00N 45°39' W 122°46'4 7.7
2018-Jun-18 00:30N 45°43' W 122°46'4 7.8
2018-Jun-18 00:00N 45°47' W 122°46'4 7.5
2018-Jun-17 23:30N 45°51' W 122°47'5 7.5
2018-Jun-17 22:47N 45°56' W 122°48'2 7.7
2018-Jun-17 22:30N 45°58' W 122°49'4 7.7
2018-Jun-17 22:00N 46°01' W 122°52'5 7.5
2018-Jun-17 21:18N 46°06' W 122°56'3 7.7
2018-Jun-17 20:57N 46°07' W 122°59'4 7.2
2018-Jun-17 20:23N 46°10' W 123°04'3 7.6
2018-Jun-17 20:00N 46°11' W 123°08'4 7.2
2018-Jun-17 19:30N 46°10' W 123°13'3 5.0
2018-Jun-17 19:00N 46°09' W 123°16'3 6.6
2018-Jun-17 18:30N 46°09' W 123°21'3 4.5
2018-Jun-17 17:54N 46°10' W 123°25'0 0.5
2018-Jun-17 17:29N 46°10' W 123°24'0 0.0
2018-Jun-17 16:59N 46°10' W 123°24'0 0.0
2018-Jun-17 16:29N 46°10' W 123°24'0 0.0
2018-Jun-17 15:56N 46°10' W 123°24'0 0.0
2018-Jun-17 15:29N 46°10' W 123°24'0 0.0
2018-Jun-17 14:59N 46°10' W 123°24'0 0.0
2018-Jun-17 14:29N 46°10' W 123°24'0 0.0
2018-Jun-17 13:59N 46°10' W 123°24'0 0.0
2018-Jun-17 13:29N 46°10' W 123°24'0 0.0
2018-Jun-17 12:59N 46°10' W 123°24'0 0.0
2018-Jun-17 12:26N 46°10' W 123°24'0 0.0
2018-Jun-17 11:59N 46°10' W 123°24'0 0.0
2018-Jun-17 11:26N 46°10' W 123°24'0 0.0
2018-Jun-17 10:59N 46°10' W 123°24'0 0.0
2018-Jun-17 10:29N 46°10' W 123°24'0 0.0
2018-Jun-17 09:44N 46°10' W 123°24'0 0.0
2018-Jun-17 09:26N 46°10' W 123°24'0 0.0
2018-Jun-17 08:59N 46°10' W 123°24'0 0.0
2018-Jun-17 08:30N 46°10' W 123°24'1 1.5
2018-Jun-17 08:00N 46°09' W 123°24'510.7
2018-Jun-17 07:30N 46°09' W 123°16'611.1
2018-Jun-17 06:59N 46°11' W 123°08'511.3
2018-Jun-17 06:31N 46°08' W 123°02'611.1
2018-Jun-17 06:00N 46°05' W 122°55'510.6
2018-Jun-17 05:30N 46°01' W 122°51'510.6
2018-Jun-17 05:00N 45°56' W 122°48'510.5
2018-Jun-17 04:30N 45°51' W 122°47'5 9.9
2018-Jun-17 04:00N 45°46' W 122°46'510.2
2018-Jun-17 03:29N 45°41' W 122°46'3 7.1
2018-Jun-17 03:00N 45°37' W 122°47'0 0.8
2018-Jun-17 02:30N 45°38' W 122°47'4 7.7
2018-Jun-17 02:00N 45°41' W 122°46'4 7.5
2018-Jun-17 01:30N 45°45' W 122°46'4 7.3
2018-Jun-17 01:00N 45°48' W 122°48'4 7.2
2018-Jun-17 00:30N 45°52' W 122°47'3 6.9
2018-Jun-17 00:00N 45°55' W 122°48'3 6.7
2018-Jun-16 23:30N 45°59' W 122°50'4 6.9
2018-Jun-16 23:00N 46°02' W 122°52'3 6.7
2018-Jun-16 22:30N 46°05' W 122°54'3 6.8
2018-Jun-16 22:00N 46°07' W 122°58'3 6.5
2018-Jun-16 21:30N 46°09' W 123°02'3 6.5
2018-Jun-16 21:00N 46°10' W 123°06'3 6.3
2018-Jun-16 20:30N 46°11' W 123°10'3 6.3
2018-Jun-16 20:00N 46°10' W 123°14'3 6.2
2018-Jun-16 19:28N 46°09' W 123°19'3 6.6
2018-Jun-16 19:00N 46°09' W 123°23'1 1.7
2018-Jun-16 18:29N 46°10' W 123°24'0 0.0
2018-Jun-16 18:00N 46°10' W 123°24'0 0.0
2018-Jun-16 17:30N 46°10' W 123°24'0 0.0
2018-Jun-16 17:00N 46°10' W 123°24'0 0.1
2018-Jun-16 16:30N 46°10' W 123°24'0 0.4
2018-Jun-16 15:59N 46°10' W 123°25'0 0.0
2018-Jun-16 15:29N 46°10' W 123°25'0 0.0
2018-Jun-16 14:56N 46°10' W 123°25'0 0.0
2018-Jun-16 14:30N 46°10' W 123°25'0 0.0
2018-Jun-16 13:56N 46°10' W 123°25'0 0.0
2018-Jun-16 13:29N 46°10' W 123°25'0 0.0
2018-Jun-16 12:59N 46°10' W 123°25'0 0.5
2018-Jun-16 12:31N 46°10' W 123°24'4 8.0
2018-Jun-16 12:00N 46°09' W 123°19'4 8.7
2018-Jun-16 11:30N 46°10' W 123°13'4 8.3
2018-Jun-16 11:01N 46°11' W 123°07'4 9.0
2018-Jun-16 10:31N 46°08' W 123°02'5 9.4
2018-Jun-16 10:00N 46°06' W 122°56'5 9.5
2018-Jun-16 09:31N 46°02' W 122°53'510.3
2018-Jun-16 09:01N 45°57' W 122°49'510.6
2018-Jun-16 08:31N 45°52' W 122°47'510.2
2018-Jun-16 08:01N 45°47' W 122°46'510.3
2018-Jun-16 07:31N 45°42' W 122°46'5 8.8
2018-Jun-16 06:59N 45°37' W 122°47'2 4.8
2018-Jun-16 06:31N 45°39' W 122°46'1 2.0
2018-Jun-16 06:00N 45°39' W 122°44'1 2.4
2018-Jun-16 05:30N 45°39' W 122°46'2 3.5
2018-Jun-16 05:00N 45°37' W 122°47'0 0.2
2018-Jun-16 04:28N 45°37' W 122°47'1 1.0
2018-Jun-16 03:54N 45°38' W 122°47'3 6.6
2018-Jun-16 03:30N 45°40' W 122°46'4 7.2
2018-Jun-16 03:00N 45°44' W 122°46'4 7.3
2018-Jun-16 02:31N 45°47' W 122°47'5 7.3
2018-Jun-16 01:53N 45°52' W 122°47'3 7.6
2018-Jun-16 01:30N 45°55' W 122°49'4 7.4
2018-Jun-16 01:01N 45°58' W 122°50'4 7.7
2018-Jun-16 00:30N 46°02' W 122°53'4 7.4
2018-Jun-16 00:00N 46°05' W 122°55'4 7.5
2018-Jun-15 23:30N 46°07' W 122°59'4 7.4
2018-Jun-15 23:01N 46°09' W 123°04'4 7.6
2018-Jun-15 22:31N 46°11' W 123°08'4 7.3
2018-Jun-15 22:00N 46°10' W 123°13'4 7.2
2018-Jun-15 21:30N 46°09' W 123°18'4 7.6
2018-Jun-15 21:01N 46°09' W 123°24'0 0.9
2018-Jun-15 20:31N 46°09' W 123°24'0 0.1
2018-Jun-15 20:00N 46°09' W 123°24'0 0.0
2018-Jun-15 19:30N 46°09' W 123°24'0 0.0
2018-Jun-15 19:01N 46°09' W 123°24'0 0.0
2018-Jun-15 18:31N 46°09' W 123°24'0 0.9
2018-Jun-15 18:01N 46°10' W 123°25'0 0.0
2018-Jun-15 17:30N 46°10' W 123°25'0 0.0
2018-Jun-15 17:00N 46°10' W 123°25'0 0.0
2018-Jun-15 16:30N 46°10' W 123°25'0 0.0
2018-Jun-15 15:51N 46°10' W 123°25'0 0.0
2018-Jun-15 15:29N 46°10' W 123°25'0 0.0
2018-Jun-15 15:00N 46°10' W 123°25'0 0.0
2018-Jun-15 14:30N 46°10' W 123°25'0 0.1
2018-Jun-15 14:00N 46°10' W 123°24'0 0.4
2018-Jun-15 13:30N 46°10' W 123°24'0 0.9
2018-Jun-15 13:00N 46°09' W 123°24'510.0
2018-Jun-15 12:30N 46°09' W 123°17'7 9.6
2018-Jun-15 11:50N 46°11' W 123°08'3 9.1
2018-Jun-15 11:30N 46°10' W 123°04'4 9.0
2018-Jun-15 11:00N 46°07' W 122°59'5 9.2
2018-Jun-15 10:30N 46°04' W 122°54'8 9.5
2018-Jun-15 09:37N 45°57' W 122°48'110.4
2018-Jun-15 09:31N 45°56' W 122°48'510.2
2018-Jun-15 09:00N 45°51' W 122°47'510.1
2018-Jun-15 08:30N 45°46' W 122°46'510.6
2018-Jun-15 08:00N 45°40' W 122°46'3 4.9
2018-Jun-15 07:19N 45°37' W 122°47'2 4.7
2018-Jun-15 06:59N 45°36' W 122°46'4 7.7
2018-Jun-15 06:30N 45°33' W 122°43'0 0.4
2018-Jun-15 06:00N 45°33' W 122°43'4 7.9
2018-Jun-15 05:30N 45°36' W 122°47'3 6.3
2018-Jun-15 05:01N 45°39' W 122°45'0 0.5
2018-Jun-15 04:31N 45°39' W 122°44'0 0.0
2018-Jun-15 04:01N 45°39' W 122°44'3 2.7
2018-Jun-15 03:03N 45°37' W 122°47'0 0.1
2018-Jun-15 03:00N 45°37' W 122°47'0 0.3
2018-Jun-15 02:30N 45°37' W 122°47'0 0.2
2018-Jun-15 02:01N 45°37' W 122°47'3 5.4
2018-Jun-15 01:29N 45°40' W 122°46'3 6.9
2018-Jun-15 01:00N 45°43' W 122°46'4 7.3
2018-Jun-15 00:30N 45°47' W 122°46'4 7.0
2018-Jun-15 00:00N 45°50' W 122°47'3 6.9
2018-Jun-14 23:30N 45°54' W 122°48'3 6.8
2018-Jun-14 23:01N 45°57' W 122°49'4 7.0
2018-Jun-14 22:30N 46°00' W 122°51'3 6.6
2018-Jun-14 22:01N 46°03' W 122°53'3 6.4
2018-Jun-14 21:30N 46°06' W 122°56'3 6.5
2018-Jun-14 21:00N 46°08' W 122°60'3 6.0
2018-Jun-14 20:30N 46°09' W 123°03'3 6.3
2018-Jun-14 20:00N 46°11' W 123°07'3 5.8
2018-Jun-14 19:31N 46°11' W 123°11'3 5.8
2018-Jun-14 19:00N 46°09' W 123°15'3 5.8
2018-Jun-14 18:31N 46°08' W 123°19'  

Dump ship's entire track history